Terminal Aerodrome Forecast
Issued by NWS North Platte, NE

Home | Current Version | Previous Version | Text Only | Print | Product List | Glossary On
Versions: 1 2 3 4 5 6 7 8 9 10 11 12 13 14 15 16 17 18 19 20
000
FTUS43 KLBF 291700
TAFVTN
TAF
KVTN 291720Z 2918/3018 34017G27KT 6SM BR BKN008 OVC015
     FM292100 01015KT 6SM BR OVC010
     FM300000 36011KT P6SM OVC020
     FM300600 VRB06KT P6SM SKC=

USA.gov is the U.S. government's official web portal to all federal, state and local government web resources and services.